ULB weather

Uléi Airport
Ambryn Island, Malampa, Vanuatu

Public forecast

Using degrees Celsius for public forecast. Weather courtesy of forecast.io.

Closest aviation weather report (METAR) to Uléi Airport

Closest report is Lamap Airport, 28.3 nm (52.4 km) WSW. Retrieved 2019/12/09 18:00 UTC (4 minutes ago):

NVSL 091800Z AUTO 22004KT //// // NCD ///// Q1010

Closest aviation forecast (TAF) to Uléi Airport

Forecast is more than 6 hours old.

Closest forecast is Lamap Airport, 28.3 nm (52.4 km) WSW. Retrieved 2019/12/09 06:27 UTC (12 hours ago):

TAF NVSL 090430Z 0906/1006 12010KT 9999 SCT020 PROB30 INTER 0906/0912 9000 SHRA BKN018